Time,TemperatureF,DewpointF,PressureIn,WindDirection,WindDirectionDegrees,WindSpeedMPH,WindSpeedGustMPH,Humidity,HourlyPrecipIn,Conditions,Clouds,dailyrainin,SoftwareType,DateUTC
2015-03-31 00:01:00,36.0,30.0,29.79,WNW,283,0.0,1.0,78,-99.99,,,-99.99,,2015-03-31 04:01:00,
2015-03-31 00:21:00,37.0,30.0,29.78,West,272,0.0,1.0,77,-99.99,,,-99.99,,2015-03-31 04:21:00,
2015-03-31 00:31:00,37.0,30.0,29.78,West,280,0.0,3.0,76,-99.99,,,-99.99,,2015-03-31 04:31:00,
2015-03-31 00:51:00,37.0,29.0,29.78,West,274,0.0,2.0,74,-99.99,,,-99.99,,2015-03-31 04:51:00,
2015-03-31 01:02:00,37.0,29.0,29.78,WNW,285,0.0,3.0,73,-99.99,,,-99.99,,2015-03-31 05:02:00,
2015-03-31 01:21:00,37.0,29.0,29.78,WNW,283,0.0,2.0,72,-99.99,,,-99.99,,2015-03-31 05:21:00,
2015-03-31 01:31:00,38.0,29.0,29.78,West,278,0.0,2.0,71,-99.99,,,-99.99,,2015-03-31 05:31:00,
2015-03-31 01:51:00,38.0,29.0,29.78,West,278,0.0,2.0,71,-99.99,,,-99.99,,2015-03-31 05:51:00,
2015-03-31 02:01:00,38.0,29.0,29.79,West,274,0.0,2.0,71,-99.99,,,-99.99,,2015-03-31 06:01:00,
2015-03-31 02:21:00,37.0,28.0,29.79,WNW,293,0.0,4.0,70,-99.99,,,-99.99,,2015-03-31 06:21:00,
2015-03-31 08:11:00,35.0,29.0,29.82,West,273,1.0,3.0,78,-99.99,,,-99.99,,2015-03-31 12:11:00,
2015-03-31 08:42:00,36.0,29.0,29.82,WNW,295,0.0,3.0,76,-99.99,,,-99.99,,2015-03-31 12:42:00,
2015-03-31 08:51:00,36.0,29.0,29.82,WNW,297,0.0,3.0,74,-99.99,,,-99.99,,2015-03-31 12:51:00,
2015-03-31 09:21:00,37.0,28.0,29.82,West,274,1.0,5.0,71,-99.99,,,-99.99,,2015-03-31 13:21:00,
2015-03-31 09:31:00,37.0,27.0,29.82,West,276,0.0,4.0,68,-99.99,,,-99.99,,2015-03-31 13:31:00,
2015-03-31 09:51:00,39.0,27.0,29.82,WNW,286,0.0,7.0,61,-99.99,,,-99.99,,2015-03-31 13:51:00,
2015-03-31 10:01:00,41.0,27.0,29.81,NW,319,1.0,6.0,56,-99.99,,,-99.99,,2015-03-31 14:01:00,
2015-03-31 10:21:00,42.0,26.0,29.81,West,273,2.0,6.0,53,-99.99,,,-99.99,,2015-03-31 14:21:00,
2015-03-31 10:42:00,42.0,26.0,29.82,WNW,286,1.0,5.0,53,-99.99,,,-99.99,,2015-03-31 14:42:00,
2015-03-31 10:51:00,43.0,26.0,29.81,WNW,303,2.0,6.0,51,-99.99,,,-99.99,,2015-03-31 14:51:00,
2015-03-31 11:01:00,42.0,24.0,29.80,WNW,283,1.0,8.0,49,-99.99,,,-99.99,,2015-03-31 15:01:00,
2015-03-31 11:11:00,42.0,24.0,29.80,WNW,283,1.0,8.0,49,-99.99,,,-99.99,,2015-03-31 15:11:00,
2015-03-31 11:21:00,43.0,25.0,29.79,WNW,284,1.0,4.0,48,-99.99,,,-99.99,,2015-03-31 15:21:00,
2015-03-31 11:42:00,44.0,25.0,29.79,WNW,290,2.0,7.0,47,-99.99,,,-99.99,,2015-03-31 15:42:00,